createdAt,value
2023-02-18T00:01:40.211Z,6.23
2023-02-18T00:04:09.920Z,6.22
2023-02-18T00:06:39.093Z,6.22
2023-02-18T00:09:09.189Z,6.20
2023-02-18T00:11:38.834Z,6.17
2023-02-18T00:14:12.353Z,6.16
2023-02-18T00:16:41.180Z,6.15
2023-02-18T00:19:13.294Z,6.14
2023-02-18T00:21:42.185Z,6.13
2023-02-18T00:24:15.639Z,6.09
2023-02-18T00:26:44.579Z,6.10
2023-02-18T00:29:12.967Z,6.10
2023-02-18T00:31:43.918Z,6.09
2023-02-18T00:34:13.181Z,6.09
2023-02-18T00:36:41.426Z,6.09
2023-02-18T00:39:11.394Z,6.08
2023-02-18T00:41:41.592Z,6.07
2023-02-18T00:44:11.443Z,6.05
2023-02-18T00:46:39.909Z,6.02
2023-02-18T00:49:08.972Z,5.98
2023-02-18T00:51:37.247Z,5.92
2023-02-18T00:54:05.613Z,5.95
2023-02-18T00:56:34.142Z,5.94
2023-02-18T00:59:02.522Z,5.95
2023-02-18T01:01:30.993Z,5.96
2023-02-18T01:03:59.249Z,6.00
2023-02-18T01:06:27.885Z,6.03
2023-02-18T01:08:56.372Z,6.04
2023-02-18T01:11:24.695Z,6.03
2023-02-18T01:13:53.428Z,6.03
2023-02-18T01:16:21.825Z,6.03
2023-02-18T01:18:50.620Z,6.04
2023-02-18T01:21:19.214Z,6.04
2023-02-18T01:23:47.977Z,5.90
2023-02-18T01:26:17.512Z,6.05
2023-02-18T01:28:45.766Z,6.05
2023-02-18T01:31:15.301Z,6.03
2023-02-18T01:33:44.424Z,6.02
2023-02-18T01:36:13.462Z,6.02
2023-02-18T01:38:41.838Z,6.02
2023-02-18T01:41:11.127Z,6.01
2023-02-18T01:43:40.210Z,6.01
2023-02-18T01:46:14.925Z,6.01
2023-02-18T01:48:55.599Z,5.99
2023-02-18T01:51:39.055Z,5.93
2023-02-18T01:54:44.675Z,5.96
2023-02-18T01:57:20.738Z,5.96
2023-02-18T02:00:12.338Z,5.96
2023-02-18T02:02:46.520Z,5.86
2023-02-18T02:05:16.825Z,5.97
2023-02-18T02:07:47.678Z,5.99
2023-02-18T02:10:17.067Z,6.00
2023-02-18T02:12:53.002Z,6.01
2023-02-18T02:15:28.632Z,6.01
2023-02-18T02:18:18.284Z,6.02
2023-02-18T02:21:24.404Z,6.02
2023-02-18T02:24:04.172Z,6.02
2023-02-18T02:26:35.324Z,6.02
2023-02-18T02:29:29.910Z,6.00
2023-02-18T02:32:39.827Z,6.01
2023-02-18T02:35:32.866Z,6.02
2023-02-18T02:38:07.919Z,6.03
2023-02-18T02:40:43.162Z,6.04
2023-02-18T02:43:18.642Z,6.04
2023-02-18T02:45:59.787Z,6.06
2023-02-18T02:49:01.138Z,6.06
2023-02-18T02:51:35.956Z,6.06
2023-02-18T02:54:24.823Z,6.05
2023-02-18T02:57:07.733Z,6.07
2023-02-18T02:59:39.374Z,5.86
2023-02-18T03:02:25.626Z,5.98
2023-02-18T03:04:56.854Z,6.04
2023-02-18T03:08:16.824Z,6.04
2023-02-18T03:10:57.689Z,6.01
2023-02-18T03:13:53.915Z,5.99
2023-02-18T03:16:48.555Z,5.98
2023-02-18T03:19:38.113Z,5.98
2023-02-18T03:22:11.945Z,6.00
2023-02-18T03:24:46.182Z,6.02
2023-02-18T03:27:29.562Z,6.01
2023-02-18T03:30:13.046Z,5.98
2023-02-18T03:32:42.203Z,5.97
2023-02-18T03:35:16.563Z,5.87
2023-02-18T03:38:01.035Z,5.96
2023-02-18T03:40:30.932Z,5.90
2023-02-18T03:43:00.031Z,5.94
2023-02-18T03:45:29.015Z,5.93
2023-02-18T03:47:57.351Z,5.93
2023-02-18T03:50:25.720Z,5.91
2023-02-18T03:52:53.919Z,5.91
2023-02-18T03:55:22.127Z,5.90
2023-02-18T03:57:50.243Z,5.90
2023-02-18T04:00:18.856Z,5.90
2023-02-18T04:02:46.905Z,5.89
2023-02-18T04:05:15.174Z,5.90
2023-02-18T04:07:43.281Z,5.89
2023-02-18T04:10:11.615Z,5.89
2023-02-18T04:12:39.855Z,5.88
2023-02-18T04:15:08.316Z,5.86
2023-02-18T04:17:36.680Z,5.87
2023-02-18T04:20:05.595Z,5.86
2023-02-18T04:22:33.834Z,5.84
2023-02-18T04:25:02.193Z,5.82
2023-02-18T04:27:30.435Z,5.80
2023-02-18T04:29:58.717Z,5.77
2023-02-18T04:32:26.870Z,5.73
2023-02-18T04:34:54.996Z,5.71
2023-02-18T04:37:23.128Z,5.68
2023-02-18T04:39:51.434Z,5.66
2023-02-18T04:42:19.670Z,5.64
2023-02-18T04:44:47.826Z,5.62
2023-02-18T04:47:16.011Z,5.43
2023-02-18T04:49:44.277Z,5.62
2023-02-18T04:52:12.504Z,5.62
2023-02-18T04:54:40.646Z,5.62
2023-02-18T04:57:08.890Z,5.62
2023-02-18T04:59:37.071Z,5.61
2023-02-18T05:02:05.852Z,5.61
2023-02-18T05:04:34.007Z,5.60
2023-02-18T05:07:02.270Z,5.62
2023-02-18T05:09:30.394Z,5.63
2023-02-18T05:11:58.500Z,5.62
2023-02-18T05:14:26.623Z,5.61
2023-02-18T05:16:54.950Z,5.59
2023-02-18T05:19:23.190Z,5.59
2023-02-18T05:21:51.918Z,5.58
2023-02-18T05:24:20.266Z,5.57
2023-02-18T05:26:48.959Z,5.56
2023-02-18T05:29:17.644Z,5.54
2023-02-18T05:31:45.868Z,5.53
2023-02-18T05:34:14.192Z,5.52
2023-02-18T05:36:42.321Z,5.49
2023-02-18T05:39:10.442Z,5.49
2023-02-18T05:41:38.580Z,5.47
2023-02-18T05:44:25.335Z,5.43
2023-02-18T05:46:53.447Z,5.42
2023-02-18T05:49:21.848Z,5.39
2023-02-18T05:51:50.021Z,5.27
2023-02-18T05:54:19.194Z,5.37
2023-02-18T05:56:47.433Z,5.36
2023-02-18T05:59:15.839Z,5.34
2023-02-18T06:01:44.677Z,5.32
2023-02-18T06:04:13.121Z,5.29
2023-02-18T06:06:41.360Z,5.17
2023-02-18T06:09:10.159Z,5.24
2023-02-18T06:11:38.423Z,5.21
2023-02-18T06:14:08.125Z,5.20
2023-02-18T06:16:36.328Z,5.17
2023-02-18T06:19:04.664Z,5.13
2023-02-18T06:21:33.165Z,5.09
2023-02-18T06:24:01.280Z,5.06
2023-02-18T06:26:29.404Z,5.05
2023-02-18T06:28:57.622Z,5.03
2023-02-18T06:31:26.061Z,5.02
2023-02-18T06:33:54.290Z,5.02
2023-02-18T06:36:22.745Z,5.02
2023-02-18T06:38:50.860Z,5.02
2023-02-18T06:41:19.043Z,5.01
2023-02-18T06:43:47.297Z,5.01
2023-02-18T06:46:15.637Z,5.01
2023-02-18T06:48:43.754Z,4.99
2023-02-18T06:51:11.849Z,5.01
2023-02-18T06:53:40.078Z,4.99
2023-02-18T06:56:08.517Z,4.88
2023-02-18T06:58:36.854Z,4.95
2023-02-18T07:01:05.532Z,4.94
2023-02-18T07:03:35.435Z,4.93
2023-02-18T07:06:03.995Z,4.94
2023-02-18T07:08:36.248Z,4.96
2023-02-18T07:11:04.698Z,4.99
2023-02-18T07:13:33.020Z,5.05
2023-02-18T07:16:01.408Z,5.10
2023-02-18T07:18:29.741Z,5.13
2023-02-18T07:20:58.096Z,5.16
2023-02-18T07:23:26.470Z,5.19
2023-02-18T07:26:08.002Z,5.21
2023-02-18T07:28:36.698Z,5.23
2023-02-18T07:31:06.031Z,5.14
2023-02-18T07:33:34.309Z,5.26
2023-02-18T07:36:03.267Z,5.32
2023-02-18T07:38:31.672Z,5.37
2023-02-18T07:41:00.012Z,5.43
2023-02-18T07:43:28.264Z,5.49
2023-02-18T07:45:56.649Z,5.56
2023-02-18T07:48:26.141Z,5.58
2023-02-18T07:50:55.250Z,5.64
2023-02-18T07:53:23.536Z,5.68
2023-02-18T07:55:52.244Z,5.75
2023-02-18T07:58:24.161Z,5.82
2023-02-18T08:00:54.361Z,5.84
2023-02-18T08:03:30.437Z,5.87
2023-02-18T08:05:59.852Z,5.88
2023-02-18T08:08:31.017Z,5.93
2023-02-18T08:11:13.354Z,5.99
2023-02-18T08:13:47.090Z,6.09
2023-02-18T08:16:17.772Z,6.16
2023-02-18T08:18:48.113Z,6.24
2023-02-18T08:21:18.970Z,6.38
2023-02-18T08:23:48.133Z,6.47
2023-02-18T08:26:17.047Z,6.62
2023-02-18T08:28:47.322Z,6.76
2023-02-18T08:31:20.819Z,6.77
2023-02-18T08:33:49.721Z,6.78
2023-02-18T08:36:18.235Z,6.88
2023-02-18T08:38:46.958Z,6.94
2023-02-18T08:41:15.956Z,6.96
2023-02-18T08:43:44.340Z,6.94
2023-02-18T08:46:16.275Z,6.91
2023-02-18T08:48:53.377Z,7.02
2023-02-18T08:51:23.302Z,7.12
2023-02-18T08:53:51.743Z,7.22
2023-02-18T08:56:20.051Z,7.42
2023-02-18T08:58:48.475Z,7.59
2023-02-18T09:01:17.304Z,7.66
2023-02-18T09:03:45.660Z,7.87
2023-02-18T09:06:13.979Z,7.87
2023-02-18T09:08:42.393Z,7.93
2023-02-18T09:11:11.774Z,7.85
2023-02-18T09:13:40.462Z,7.84
2023-02-18T09:16:13.474Z,7.98
2023-02-18T09:18:42.464Z,8.16
2023-02-18T09:21:14.173Z,8.25
2023-02-18T09:23:43.218Z,8.39
2023-02-18T09:26:15.213Z,8.51
2023-02-18T09:28:43.782Z,8.47
2023-02-18T09:31:17.558Z,8.36
2023-02-18T09:33:56.166Z,8.30
2023-02-18T09:36:25.155Z,8.35
2023-02-18T09:38:54.908Z,8.57
2023-02-18T09:41:39.736Z,8.60
2023-02-18T09:44:23.292Z,8.36
2023-02-18T09:47:15.668Z,8.18
2023-02-18T09:49:55.314Z,8.02
2023-02-18T09:52:33.965Z,7.98
2023-02-18T09:55:19.318Z,7.89
2023-02-18T09:57:51.897Z,7.86
2023-02-18T10:00:27.281Z,8.17
2023-02-18T10:02:58.814Z,8.33
2023-02-18T10:05:30.812Z,8.78
2023-02-18T10:08:05.439Z,9.43
2023-02-18T10:10:44.418Z,9.54
2023-02-18T10:13:19.632Z,9.70
2023-02-18T10:15:50.345Z,10.19
2023-02-18T10:18:32.144Z,10.47
2023-02-18T10:21:14.214Z,10.69
2023-02-18T10:23:55.096Z,10.48
2023-02-18T10:26:23.592Z,10.02
2023-02-18T10:28:52.793Z,9.94
2023-02-18T10:31:36.274Z,9.63
2023-02-18T10:34:24.423Z,9.38
2023-02-18T10:37:03.943Z,9.03
2023-02-18T10:40:12.294Z,8.86
2023-02-18T10:43:08.968Z,8.80
2023-02-18T10:45:43.796Z,8.68
2023-02-18T10:48:24.205Z,8.48
2023-02-18T10:50:52.927Z,8.27
2023-02-18T10:53:30.999Z,8.05
2023-02-18T10:55:59.631Z,7.94
2023-02-18T10:58:30.791Z,7.79
2023-02-18T11:01:05.098Z,7.76
2023-02-18T11:03:52.561Z,7.96
2023-02-18T11:06:53.975Z,8.82
2023-02-18T11:09:30.313Z,8.58
2023-02-18T11:12:08.941Z,8.38
2023-02-18T11:14:41.162Z,8.50
2023-02-18T11:17:18.295Z,8.59
2023-02-18T11:19:58.681Z,9.13
2023-02-18T11:22:35.287Z,8.80
2023-02-18T11:25:19.595Z,8.54
2023-02-18T11:27:55.490Z,8.87
2023-02-18T11:30:38.346Z,8.60
2023-02-18T11:33:09.116Z,8.24
2023-02-18T11:35:38.099Z,8.00
2023-02-18T11:38:24.448Z,8.06
2023-02-18T11:41:01.458Z,8.57
2023-02-18T11:43:31.684Z,8.92
2023-02-18T11:46:11.395Z,9.81
2023-02-18T11:48:40.222Z,10.32
2023-02-18T11:51:17.264Z,10.01
2023-02-18T11:54:00.479Z,10.31
2023-02-18T11:56:38.817Z,10.30
2023-02-18T11:59:11.074Z,9.80
2023-02-18T12:01:50.600Z,10.03
2023-02-18T12:04:33.816Z,10.21
2023-02-18T12:07:05.631Z,10.31
2023-02-18T12:09:43.156Z,10.83
2023-02-18T12:12:35.639Z,11.36
2023-02-18T12:15:05.861Z,11.70
2023-02-18T12:17:35.006Z,12.03
2023-02-18T12:20:08.903Z,11.47
2023-02-18T12:22:40.159Z,10.76
2023-02-18T12:25:20.929Z,10.16
2023-02-18T12:28:09.760Z,9.60
2023-02-18T12:30:54.507Z,9.15
2023-02-18T12:33:32.054Z,8.88
2023-02-18T12:36:31.479Z,8.63
2023-02-18T12:39:06.136Z,8.34
2023-02-18T12:41:51.795Z,8.19
2023-02-18T12:45:00.036Z,8.12
2023-02-18T12:47:28.317Z,8.02
2023-02-18T12:50:20.537Z,7.87
2023-02-18T12:53:18.185Z,7.75
2023-02-18T12:56:11.643Z,7.66
2023-02-18T12:58:49.826Z,7.52
2023-02-18T13:01:34.255Z,7.37
2023-02-18T13:04:36.555Z,7.24
2023-02-18T13:07:11.369Z,7.14
2023-02-18T13:10:18.285Z,7.18
2023-02-18T13:13:19.014Z,7.16
2023-02-18T13:16:12.410Z,7.17
2023-02-18T13:19:02.155Z,7.13
2023-02-18T13:21:32.266Z,7.06
2023-02-18T13:24:07.990Z,7.01
2023-02-18T13:26:36.241Z,6.96
2023-02-18T13:29:30.515Z,6.82
2023-02-18T13:32:00.681Z,6.91
2023-02-18T13:34:43.173Z,6.82
2023-02-18T13:37:12.041Z,6.81
2023-02-18T13:39:49.632Z,6.80
2023-02-18T13:42:17.981Z,6.78
2023-02-18T13:44:49.161Z,6.73
2023-02-18T13:47:42.332Z,6.71
2023-02-18T13:50:26.829Z,6.70
2023-02-18T13:53:14.025Z,6.67
2023-02-18T13:55:59.981Z,6.55
2023-02-18T13:58:50.967Z,6.65
2023-02-18T14:01:36.268Z,6.61
2023-02-18T14:04:04.781Z,6.59
2023-02-18T14:06:38.061Z,6.36
2023-02-18T14:09:13.232Z,6.57
2023-02-18T14:11:58.032Z,6.55
2023-02-18T14:14:26.321Z,6.52
2023-02-18T14:17:14.440Z,6.50
2023-02-18T14:19:43.265Z,6.45
2023-02-18T14:22:31.790Z,6.42
2023-02-18T14:25:13.663Z,6.42
2023-02-18T14:27:43.413Z,6.40
2023-02-18T14:30:30.154Z,6.40
2023-02-18T14:33:01.600Z,6.38
2023-02-18T14:35:53.870Z,6.36
2023-02-18T14:38:55.663Z,6.35
2023-02-18T14:41:38.814Z,6.35
2023-02-18T14:44:32.937Z,6.33
2023-02-18T14:47:17.283Z,6.31
2023-02-18T14:49:55.216Z,6.28
2023-02-18T14:52:45.204Z,6.24
2023-02-18T14:55:40.037Z,6.21
2023-02-18T14:58:25.738Z,6.16
2023-02-18T15:00:54.261Z,6.12
2023-02-18T15:03:23.348Z,6.08
2023-02-18T15:05:53.333Z,6.04
2023-02-18T15:08:27.738Z,6.01
2023-02-18T15:11:07.578Z,5.96
2023-02-18T15:13:47.075Z,5.93
2023-02-18T15:16:33.147Z,5.91
2023-02-18T15:19:05.487Z,5.89
2023-02-18T15:21:50.972Z,5.90
2023-02-18T15:24:19.519Z,5.85
2023-02-18T15:26:52.190Z,5.84
2023-02-18T15:29:26.370Z,5.81
2023-02-18T15:32:00.994Z,5.77
2023-02-18T15:34:29.445Z,5.74
2023-02-18T15:37:00.961Z,5.71
2023-02-18T15:39:30.176Z,5.70
2023-02-18T15:42:25.170Z,5.68
2023-02-18T15:44:58.694Z,5.66
2023-02-18T15:47:27.165Z,5.65
2023-02-18T15:49:58.325Z,5.62
2023-02-18T15:52:39.156Z,5.59
2023-02-18T15:55:15.339Z,5.58
2023-02-18T15:57:43.954Z,5.57
2023-02-18T16:00:15.453Z,5.55
2023-02-18T16:02:54.548Z,5.53
2023-02-18T16:05:28.093Z,5.50
2023-02-18T16:08:07.309Z,5.49
2023-02-18T16:10:54.749Z,5.47
2023-02-18T16:13:26.443Z,5.44
2023-02-18T16:15:55.356Z,5.42
2023-02-18T16:18:29.569Z,5.39
2023-02-18T16:21:23.358Z,5.36
2023-02-18T16:23:59.628Z,5.34
2023-02-18T16:26:30.128Z,5.31
2023-02-18T16:29:13.678Z,5.29
2023-02-18T16:31:43.805Z,5.27
2023-02-18T16:34:12.219Z,5.26
2023-02-18T16:37:00.597Z,5.25
2023-02-18T16:39:33.254Z,5.23
2023-02-18T16:42:01.689Z,5.23
2023-02-18T16:44:32.857Z,5.21
2023-02-18T16:47:01.552Z,5.19
2023-02-18T16:49:30.647Z,5.17
2023-02-18T16:52:01.375Z,5.14
2023-02-18T16:54:29.692Z,5.12
2023-02-18T16:56:58.020Z,5.09
2023-02-18T16:59:26.375Z,5.07
2023-02-18T17:01:56.196Z,5.02
2023-02-18T17:04:25.150Z,4.99
2023-02-18T17:06:53.387Z,4.88
2023-02-18T17:09:27.172Z,4.95
2023-02-18T17:11:56.386Z,4.94
2023-02-18T17:14:24.813Z,4.91
2023-02-18T17:16:55.018Z,4.88
2023-02-18T17:19:24.653Z,4.85
2023-02-18T17:21:52.955Z,4.73
2023-02-18T17:24:21.423Z,4.71
2023-02-18T17:26:49.796Z,4.78
2023-02-18T17:29:19.739Z,4.65
2023-02-18T17:31:55.196Z,4.73
2023-02-18T17:34:28.537Z,4.71
2023-02-18T17:36:59.463Z,4.69
2023-02-18T17:39:28.673Z,4.67
2023-02-18T17:41:57.090Z,4.66
2023-02-18T17:44:26.492Z,4.64
2023-02-18T17:46:55.023Z,4.63
2023-02-18T17:49:23.384Z,4.62
2023-02-18T17:51:52.722Z,4.60
2023-02-18T17:54:23.090Z,4.52
2023-02-18T17:56:51.515Z,4.55
2023-02-18T17:59:19.886Z,4.51
2023-02-18T18:01:48.740Z,4.48
2023-02-18T18:04:19.601Z,4.46
2023-02-18T18:06:50.090Z,4.43
2023-02-18T18:09:18.429Z,4.39
2023-02-18T18:11:46.758Z,4.38
2023-02-18T18:14:15.447Z,4.36
2023-02-18T18:16:43.832Z,4.24
2023-02-18T18:19:12.085Z,4.30
2023-02-18T18:21:41.087Z,4.29
2023-02-18T18:24:12.392Z,4.29
2023-02-18T18:26:41.049Z,4.27
2023-02-18T18:29:09.365Z,4.25
2023-02-18T18:31:37.807Z,4.24
2023-02-18T18:34:06.416Z,4.21
2023-02-18T18:36:34.789Z,4.20
2023-02-18T18:39:03.158Z,4.20
2023-02-18T18:41:31.843Z,4.20
2023-02-18T18:44:00.737Z,4.18
2023-02-18T18:46:29.687Z,4.13
2023-02-18T18:48:58.305Z,4.16
2023-02-18T18:51:30.084Z,4.15
2023-02-18T18:53:58.743Z,4.14
2023-02-18T18:56:27.455Z,4.04
2023-02-18T18:58:55.908Z,4.13
2023-02-18T19:01:27.362Z,4.13
2023-02-18T19:03:56.237Z,4.10
2023-02-18T19:06:24.601Z,4.07
2023-02-18T19:08:53.058Z,3.97
2023-02-18T19:11:21.553Z,4.04
2023-02-18T19:13:50.542Z,4.01
2023-02-18T19:16:28.781Z,3.98
2023-02-18T19:18:57.039Z,3.94
2023-02-18T19:21:25.239Z,3.89
2023-02-18T19:23:53.397Z,3.87
2023-02-18T19:26:21.576Z,3.84
2023-02-18T19:28:49.908Z,3.78
2023-02-18T19:31:18.194Z,3.77
2023-02-18T19:33:47.375Z,3.76
2023-02-18T19:36:16.858Z,3.72
2023-02-18T19:38:46.223Z,3.69
2023-02-18T19:41:19.569Z,3.65
2023-02-18T19:43:47.806Z,3.63
2023-02-18T19:46:18.393Z,3.57
2023-02-18T19:48:52.392Z,3.49
2023-02-18T19:51:24.918Z,3.47
2023-02-18T19:53:54.616Z,3.45
2023-02-18T19:56:24.451Z,3.43
2023-02-18T19:58:55.657Z,3.41
2023-02-18T20:01:24.450Z,3.37
2023-02-18T20:03:53.864Z,3.34
2023-02-18T20:06:22.398Z,3.33
2023-02-18T20:08:51.686Z,3.31
2023-02-18T20:11:20.760Z,3.27
2023-02-18T20:13:49.264Z,3.24
2023-02-18T20:16:17.501Z,3.22
2023-02-18T20:18:46.644Z,3.20
2023-02-18T20:21:14.994Z,3.19
2023-02-18T20:23:43.307Z,3.17
2023-02-18T20:26:14.872Z,3.16
2023-02-18T20:28:44.623Z,3.16
2023-02-18T20:31:14.152Z,3.15
2023-02-18T20:33:43.577Z,3.14
2023-02-18T20:36:14.420Z,3.14
2023-02-18T20:38:43.332Z,3.14
2023-02-18T20:41:14.711Z,3.14
2023-02-18T20:43:43.143Z,3.14
2023-02-18T20:46:14.104Z,3.13
2023-02-18T20:48:43.339Z,3.08
2023-02-18T20:51:15.167Z,3.12
2023-02-18T20:53:44.901Z,3.11
2023-02-18T20:56:13.920Z,3.11
2023-02-18T20:58:42.683Z,3.10
2023-02-18T21:01:14.318Z,3.09
2023-02-18T21:03:45.495Z,3.08
2023-02-18T21:06:17.367Z,3.07
2023-02-18T21:08:47.481Z,2.96
2023-02-18T21:11:19.126Z,3.05
2023-02-18T21:13:49.340Z,3.04
2023-02-18T21:16:19.342Z,3.04
2023-02-18T21:18:47.787Z,3.01
2023-02-18T21:21:16.836Z,2.99
2023-02-18T21:23:45.220Z,2.97
2023-02-18T21:26:16.775Z,2.94
2023-02-18T21:28:55.384Z,2.93
2023-02-18T21:31:28.481Z,2.86
2023-02-18T21:33:57.926Z,2.92
2023-02-18T21:36:27.593Z,2.92
2023-02-18T21:38:58.477Z,2.92
2023-02-18T21:41:27.753Z,2.93
2023-02-18T21:43:56.899Z,2.93
2023-02-18T21:46:27.908Z,2.94
2023-02-18T21:49:03.510Z,2.94
2023-02-18T21:51:59.296Z,2.94
2023-02-18T21:54:31.967Z,2.94
2023-02-18T21:57:03.905Z,2.92
2023-02-18T21:59:33.970Z,2.91
2023-02-18T22:02:03.517Z,2.89
2023-02-18T22:04:34.407Z,2.86
2023-02-18T22:07:03.576Z,2.83
2023-02-18T22:09:31.864Z,2.77
2023-02-18T22:12:00.121Z,2.75
2023-02-18T22:14:28.723Z,2.66
2023-02-18T22:16:57.336Z,2.68
2023-02-18T22:19:26.044Z,2.65
2023-02-18T22:21:54.776Z,2.61
2023-02-18T22:24:23.023Z,2.57
2023-02-18T22:26:51.300Z,2.54
2023-02-18T22:29:20.502Z,2.52
2023-02-18T22:31:53.521Z,2.50
2023-02-18T22:34:23.123Z,2.49
2023-02-18T22:36:51.856Z,2.48
2023-02-18T22:39:20.396Z,2.47
2023-02-18T22:41:49.506Z,2.45
2023-02-18T22:44:18.271Z,2.45
2023-02-18T22:46:46.692Z,2.44
2023-02-18T22:49:16.724Z,2.43
2023-02-18T22:51:45.090Z,2.41
2023-02-18T22:54:15.588Z,2.40
2023-02-18T22:56:45.384Z,2.38
2023-02-18T22:59:15.632Z,2.38
2023-02-18T23:01:53.096Z,2.37
2023-02-18T23:04:21.822Z,2.36
2023-02-18T23:06:50.249Z,2.35
2023-02-18T23:09:22.923Z,2.33
2023-02-18T23:11:53.419Z,2.33
2023-02-18T23:14:21.955Z,2.33
2023-02-18T23:17:12.982Z,2.31
2023-02-18T23:19:46.762Z,2.29
2023-02-18T23:22:20.622Z,2.26
2023-02-18T23:24:49.721Z,2.23
2023-02-18T23:27:18.266Z,2.23
2023-02-18T23:29:46.485Z,2.21
2023-02-18T23:32:14.788Z,2.20
2023-02-18T23:34:42.965Z,2.18
2023-02-18T23:37:11.659Z,2.16
2023-02-18T23:39:40.150Z,2.15
2023-02-18T23:42:09.020Z,2.16
2023-02-18T23:44:37.208Z,2.14
2023-02-18T23:47:05.786Z,2.13
2023-02-18T23:49:34.259Z,2.13
2023-02-18T23:52:02.563Z,2.11
2023-02-18T23:54:31.043Z,2.10
2023-02-18T23:56:59.249Z,2.07
2023-02-18T23:59:27.432Z,2.06
